Time;durP1;ratioP1;P1;durP2;ratioP2;P2;SDS_P1;SDS_P2;PMS_P1;PMS_P2;Temp;Humidity;BMP_temperature;BMP_pressure;BME280_temperature;BME280_humidity;BME280_pressure;Samples;Min_cycle;Max_cycle;Signal;HPM_P1;HPM_P2
2022/11/22 00:00:50;;;;;;;4.82;0.70;;;21.70;42.20;;;;;;5011224;28;20491;-68
2022/11/22 00:03:17;;;;;;;2.10;0.50;;;21.60;40.50;;;;;;5011297;28;20076;-68
2022/11/22 00:05:45;;;;;;;4.90;0.65;;;21.40;40.50;;;;;;5011235;28;20030;-68
2022/11/22 00:08:12;;;;;;;8.52;0.98;;;21.20;41.30;;;;;;5011079;28;20017;-67
2022/11/22 00:10:39;;;;;;;7.15;0.60;;;21.00;41.70;;;;;;5011171;28;20183;-68
2022/11/22 00:13:07;;;;;;;5.75;0.70;;;21.20;41.00;;;;;;5010928;28;20018;-69
2022/11/22 00:15:34;;;;;;;7.57;0.70;;;21.40;41.70;;;;;;5010968;28;20026;-69
2022/11/22 00:18:02;;;;;;;12.80;1.52;;;21.40;41.30;;;;;;5015321;28;20037;-69
2022/11/22 00:20:29;;;;;;;9.00;1.60;;;21.50;42.20;;;;;;5012497;28;20104;-68
2022/11/22 00:22:59;;;;;;;7.60;0.63;;;21.70;40.90;;;;;;5011938;28;20037;-67
2022/11/22 00:25:27;;;;;;;2.70;0.57;;;22.10;40.80;;;;;;5019332;28;20041;-67
2022/11/22 00:27:54;;;;;;;5.65;0.70;;;22.40;40.50;;;;;;5015157;28;20045;-68
2022/11/22 00:30:21;;;;;;;3.67;0.50;;;23.10;41.00;;;;;;5011995;28;20038;-68
2022/11/22 00:32:48;;;;;;;8.82;0.70;;;22.80;39.80;;;;;;5011834;28;20060;-67
2022/11/22 00:35:16;;;;;;;8.93;0.90;;;22.90;40.00;;;;;;5009372;28;20505;-67
2022/11/22 00:37:43;;;;;;;12.93;1.83;;;23.10;40.50;;;;;;5010819;28;20022;-67
2022/11/22 00:40:10;;;;;;;12.85;1.25;;;22.60;39.10;;;;;;5000761;28;20088;-68
2022/11/22 00:42:38;;;;;;;6.80;0.47;;;22.50;39.60;;;;;;5011417;28;20113;-67
2022/11/22 00:45:05;;;;;;;2.65;0.60;;;22.60;40.00;;;;;;5026444;28;20084;-68
2022/11/22 00:47:33;;;;;;;3.05;0.60;;;22.30;39.60;;;;;;5008102;28;20025;-68
2022/11/22 00:50:00;;;;;;;3.45;0.43;;;22.20;38.70;;;;;;5010206;28;20038;-68
2022/11/22 00:52:27;;;;;;;5.25;0.75;;;22.00;39.00;;;;;;5009130;28;20040;-68
2022/11/22 00:54:54;;;;;;;1.30;0.40;;;21.90;38.60;;;;;;5015805;28;20068;-68
2022/11/22 00:57:22;;;;;;;2.28;0.50;;;21.70;39.80;;;;;;5011833;28;20053;-68
2022/11/22 00:59:49;;;;;;;3.50;0.68;;;21.60;39.10;;;;;;5013253;28;20046;-68
2022/11/22 01:02:16;;;;;;;5.15;0.55;;;21.70;40.40;;;;;;5013012;28;20024;-68
2022/11/22 01:04:44;;;;;;;2.40;0.50;;;22.00;39.30;;;;;;5008411;28;20096;-68
2022/11/22 01:07:11;;;;;;;1.33;0.43;;;22.00;37.80;;;;;;5024564;28;20028;-68
2022/11/22 01:09:38;;;;;;;8.60;0.60;;;21.70;38.30;;;;;;5005204;28;20072;-68
2022/11/22 01:12:06;;;;;;;3.85;0.57;;;21.80;40.70;;;;;;5018466;28;20045;-68
2022/11/22 01:14:33;;;;;;;4.80;0.85;;;21.90;40.20;;;;;;5011701;28;20061;-68
2022/11/22 01:17:01;;;;;;;3.00;0.43;;;22.10;40.80;;;;;;5008321;28;20486;-68
2022/11/22 01:19:28;;;;;;;5.50;0.50;;;22.10;40.80;;;;;;5012200;28;20040;-68
2022/11/22 01:21:55;;;;;;;11.15;0.77;;;22.40;39.70;;;;;;5009398;28;20120;-68
2022/11/22 01:24:22;;;;;;;2.28;0.65;;;22.80;41.50;;;;;;5010105;28;20076;-67
2022/11/22 01:26:50;;;;;;;19.27;1.65;;;23.10;39.80;;;;;;5012499;28;20104;-68
2022/11/22 01:29:17;;;;;;;4.72;0.47;;;23.20;39.90;;;;;;4994907;28;20033;-68
2022/11/22 01:31:44;;;;;;;7.82;0.98;;;23.50;38.70;;;;;;5008267;28;20471;-69
2022/11/22 01:34:12;;;;;;;14.63;1.10;;;23.30;39.10;;;;;;5009730;28;20515;-68
2022/11/22 01:36:39;;;;;;;15.68;1.42;;;23.30;39.70;;;;;;5010147;28;20057;-68
2022/11/22 01:39:06;;;;;;;6.45;0.60;;;23.30;39.10;;;;;;5010242;28;20064;-68
2022/11/22 01:41:33;;;;;;;2.30;0.50;;;23.10;39.10;;;;;;5004828;28;20036;-67
2022/11/22 01:44:29;;;;;;;2.20;1.33;;;23.40;38.80;;;;;;5008029;28;20101;-68
2022/11/22 01:47:13;;;;;;;14.30;0.95;;;23.20;39.30;;;;;;5008859;28;20394;-67
2022/11/22 01:49:57;;;;;;;4.70;0.60;;;23.40;39.60;;;;;;5016048;28;20036;-67
2022/11/22 01:52:28;;;;;;;4.40;0.73;;;23.50;39.90;;;;;;5009722;28;20026;-67
2022/11/22 01:55:06;;;;;;;16.13;1.40;;;23.50;41.00;;;;;;5006179;28;20034;-67
2022/11/22 01:57:37;;;;;;;4.65;0.70;;;23.70;39.10;;;;;;5007084;28;20030;-67
2022/11/22 02:00:10;;;;;;;5.78;0.55;;;23.90;38.50;;;;;;5008422;28;20079;-67
2022/11/22 02:02:38;;;;;;;2.00;0.35;;;23.60;37.50;;;;;;5013869;28;20048;-67
2022/11/22 02:05:15;;;;;;;9.25;0.80;;;23.50;40.10;;;;;;5016130;28;20549;-67
2022/11/22 02:08:01;;;;;;;11.60;0.98;;;23.80;40.80;;;;;;5009761;28;20022;-67
2022/11/22 02:10:33;;;;;;;2.67;0.63;;;24.20;41.10;;;;;;5011628;28;20065;-68
2022/11/22 02:13:01;;;;;;;4.25;1.00;;;24.80;40.40;;;;;;5011432;28;20491;-67
2022/11/22 02:15:29;;;;;;;5.43;1.30;;;24.90;38.00;;;;;;5010375;28;20474;-67
2022/11/22 02:17:59;;;;;;;15.90;1.70;;;24.90;38.90;;;;;;5015046;28;20026;-68
2022/11/22 02:20:27;;;;;;;3.97;0.73;;;24.80;39.60;;;;;;5014482;28;20046;-67
2022/11/22 02:23:38;;;;;;;10.23;0.80;;;24.80;39.30;;;;;;5012097;28;20030;-67
2022/11/22 02:26:06;;;;;;;9.85;1.10;;;25.00;39.80;;;;;;4966798;28;20231;-67
2022/11/22 02:28:38;;;;;;;0.50;0.28;;;24.90;39.00;;;;;;4967157;28;20049;-67
2022/11/22 02:31:06;;;;;;;5.10;0.82;;;24.60;38.60;;;;;;4992519;28;20048;-67
2022/11/22 02:33:33;;;;;;;2.80;0.70;;;24.80;39.00;;;;;;5014417;28;20049;-66
2022/11/22 02:36:01;;;;;;;93.65;10.00;;;24.80;39.70;;;;;;5016100;28;20112;-69
2022/11/22 02:38:33;;;;;;;8.40;0.70;;;25.10;41.30;;;;;;5026982;28;20052;-66
2022/11/22 02:41:08;;;;;;;8.00;0.50;;;25.40;38.90;;;;;;5016295;28;20033;-65
2022/11/22 02:43:46;;;;;;;0.73;0.30;;;25.50;39.20;;;;;;5009838;28;20515;-68
2022/11/22 02:46:19;;;;;;;4.53;1.13;;;25.70;39.60;;;;;;5024954;28;20036;-67
2022/11/22 02:48:47;;;;;;;11.77;0.98;;;25.90;39.70;;;;;;5014117;28;20108;-67
2022/11/22 02:51:18;;;;;;;2.33;0.40;;;26.10;38.60;;;;;;5010127;28;20033;-66
2022/11/22 02:53:51;;;;;;;2.38;0.32;;;26.50;38.70;;;;;;5006729;28;20035;-69
2022/11/22 02:56:18;;;;;;;2.08;0.40;;;26.70;41.00;;;;;;5014453;28;20502;-68
2022/11/22 02:58:46;;;;;;;0.90;0.52;;;27.10;36.80;;;;;;5010864;28;20080;-67
2022/11/22 03:01:13;;;;;;;1.73;0.40;;;26.70;38.60;;;;;;5024129;28;20030;-67
2022/11/22 03:03:40;;;;;;;2.10;0.40;;;26.70;39.20;;;;;;5019230;28;20028;-66
2022/11/22 03:06:08;;;;;;;1.85;0.50;;;26.70;37.40;;;;;;5018875;28;20402;-66
2022/11/22 03:08:35;;;;;;;1.75;0.35;;;26.90;39.80;;;;;;5015856;28;20038;-66
2022/11/22 03:11:02;;;;;;;4.38;0.50;;;26.70;39.10;;;;;;5025851;28;20087;-66
2022/11/22 03:13:29;;;;;;;3.05;0.40;;;26.50;37.70;;;;;;5009147;28;20021;-64
2022/11/22 03:15:57;;;;;;;1.65;0.35;;;26.40;37.80;;;;;;5017379;28;20458;-66
2022/11/22 03:18:24;;;;;;;2.25;0.52;;;26.20;36.20;;;;;;5011371;28;20022;-65
2022/11/22 03:20:51;;;;;;;2.03;0.40;;;25.90;38.30;;;;;;5026256;28;20087;-65
2022/11/22 03:23:18;;;;;;;1.13;0.45;;;25.50;38.90;;;;;;5015333;28;20394;-67
2022/11/22 03:25:45;;;;;;;8.35;0.68;;;25.50;39.60;;;;;;5009023;28;20036;-66
2022/11/22 03:28:13;;;;;;;2.80;0.35;;;25.60;38.30;;;;;;5017743;28;20052;-65
2022/11/22 03:30:41;;;;;;;2.22;0.50;;;25.60;39.40;;;;;;5011022;28;20041;-66
2022/11/22 03:33:08;;;;;;;6.53;0.80;;;25.70;39.10;;;;;;5012519;28;20044;-66
2022/11/22 03:35:36;;;;;;;8.70;0.88;;;25.70;37.10;;;;;;5016661;28;20030;-64
2022/11/22 03:38:03;;;;;;;11.20;0.90;;;25.70;38.90;;;;;;5020723;28;20024;-65
2022/11/22 03:40:31;;;;;;;1.17;0.30;;;25.80;39.10;;;;;;5024192;28;20021;-67
2022/11/22 03:43:00;;;;;;;2.00;0.50;;;25.90;41.00;;;;;;5005173;28;20515;-66
2022/11/22 03:45:28;;;;;;;1.95;0.30;;;25.70;37.20;;;;;;5012684;28;20581;-65
2022/11/22 03:47:58;;;;;;;5.47;0.40;;;25.60;39.90;;;;;;5001001;28;20091;-66
2022/11/22 03:50:26;;;;;;;4.18;0.60;;;25.50;39.40;;;;;;5006153;28;20092;-65
2022/11/22 03:52:53;;;;;;;9.18;1.13;;;25.60;38.90;;;;;;5008851;28;20044;-65
2022/11/22 03:55:20;;;;;;;3.20;0.43;;;25.50;39.20;;;;;;5010451;28;20113;-64
2022/11/22 03:57:47;;;;;;;18.42;1.92;;;25.10;38.80;;;;;;5009037;28;20048;-65
2022/11/22 04:00:15;;;;;;;5.78;0.82;;;25.00;40.50;;;;;;5010562;28;20025;-65
2022/11/22 04:02:42;;;;;;;2.35;0.55;;;25.20;39.70;;;;;;5014124;28;20076;-65
2022/11/22 04:05:09;;;;;;;9.02;1.23;;;25.50;39.50;;;;;;5003287;28;20037;-64
2022/11/22 04:07:37;;;;;;;4.25;0.40;;;25.50;39.50;;;;;;5013810;28;20017;-66
2022/11/22 04:10:05;;;;;;;2.13;0.63;;;25.50;39.70;;;;;;5016051;28;20462;-66
2022/11/22 04:12:33;;;;;;;1.33;0.30;;;25.60;39.30;;;;;;5010534;28;20376;-67
2022/11/22 04:15:06;;;;;;;2.60;0.52;;;26.00;40.00;;;;;;5022185;28;20545;-66
2022/11/22 04:17:43;;;;;;;5.63;0.60;;;26.30;39.30;;;;;;5017462;28;20022;-67
2022/11/22 04:23:13;;;;;;;2.50;0.65;;;26.10;37.90;;;;;;5019222;28;20083;-66
2022/11/22 04:25:49;;;;;;;0.98;0.40;;;25.60;39.10;;;;;;5010140;28;20026;-66
2022/11/22 04:28:18;;;;;;;2.88;0.32;;;25.30;39.90;;;;;;5021642;28;20499;-65
2022/11/22 04:33:31;;;;;;;3.15;0.40;;;25.40;40.90;;;;;;5023590;28;20096;-66
2022/11/22 04:35:58;;;;;;;1.75;0.40;;;25.40;38.40;;;;;;5020154;28;20027;-66
2022/11/22 04:38:26;;;;;;;6.47;0.65;;;25.10;38.80;;;;;;5013655;28;20072;-65
2022/11/22 04:40:53;;;;;;;1.20;0.40;;;25.00;39.10;;;;;;5026542;28;20040;-65
2022/11/22 04:46:16;;;;;;;5.47;0.60;;;25.20;39.30;;;;;;5010738;28;20483;-66
2022/11/22 04:48:44;;;;;;;23.45;1.40;;;25.20;40.80;;;;;;5008267;28;20048;-66
2022/11/22 04:54:00;;;;;;;1.20;0.35;;;24.50;40.50;;;;;;5009288;28;20044;-65
2022/11/22 04:56:27;;;;;;;3.38;0.40;;;24.60;40.90;;;;;;5009780;28;20054;-66
2022/11/22 04:58:55;;;;;;;16.42;1.00;;;24.30;40.10;;;;;;5015296;28;20029;-66
2022/11/22 05:01:22;;;;;;;11.88;1.52;;;24.20;41.20;;;;;;5011671;28;20068;-65
2022/11/22 05:03:52;;;;;;;5.20;0.52;;;24.30;41.60;;;;;;5011208;28;20017;-65
2022/11/22 05:06:19;;;;;;;6.22;0.70;;;24.20;40.90;;;;;;5012543;28;20030;-65
2022/11/22 05:08:47;;;;;;;11.63;1.08;;;24.20;42.10;;;;;;5009112;28;20929;-65
2022/11/22 05:11:14;;;;;;;3.92;0.50;;;24.20;41.60;;;;;;5018505;28;20022;-66
2022/11/22 05:13:42;;;;;;;1.05;0.40;;;24.20;41.20;;;;;;5013277;28;20100;-66
2022/11/22 05:16:12;;;;;;;3.15;0.73;;;24.20;41.20;;;;;;5013815;28;20026;-66
2022/11/22 05:18:39;;;;;;;11.27;1.08;;;24.30;40.60;;;;;;5014121;28;20113;-66
2022/11/22 05:21:08;;;;;;;5.60;1.15;;;24.20;41.00;;;;;;5013151;28;20107;-66
2022/11/22 05:23:54;;;;;;;4.03;0.50;;;24.00;40.90;;;;;;5006937;28;20083;-66
2022/11/22 05:26:28;;;;;;;12.85;1.92;;;24.00;42.40;;;;;;5010383;28;20299;-66
2022/11/22 05:28:57;;;;;;;17.15;1.60;;;24.20;41.00;;;;;;5011180;28;20048;-66
2022/11/22 05:31:26;;;;;;;14.52;1.10;;;24.00;40.80;;;;;;5019931;28;20036;-66
2022/11/22 05:33:56;;;;;;;10.65;1.05;;;23.60;41.60;;;;;;5006120;28;20062;-66
2022/11/22 05:36:24;;;;;;;2.28;0.60;;;23.60;41.70;;;;;;5008925;28;20030;-66
2022/11/22 05:38:51;;;;;;;7.80;1.05;;;23.90;42.90;;;;;;5010342;28;20034;-66
2022/11/22 05:41:19;;;;;;;5.45;0.50;;;24.00;41.40;;;;;;5007599;28;20506;-66
2022/11/22 05:43:46;;;;;;;1.95;0.40;;;24.00;42.30;;;;;;5005272;28;20030;-67
2022/11/22 05:46:31;;;;;;;4.20;0.40;;;24.10;41.10;;;;;;5020518;28;20045;-66
2022/11/22 05:48:58;;;;;;;4.88;0.70;;;24.20;41.60;;;;;;5006856;28;20045;-67
2022/11/22 05:51:30;;;;;;;8.07;0.60;;;24.30;41.10;;;;;;5005736;28;20025;-67
2022/11/22 05:53:57;;;;;;;7.90;0.90;;;23.80;41.60;;;;;;5007035;28;20034;-66
2022/11/22 05:56:25;;;;;;;6.20;0.55;;;23.40;42.10;;;;;;5007211;28;20396;-65
2022/11/22 05:58:53;;;;;;;2.58;0.60;;;23.40;43.10;;;;;;5007958;28;20030;-65
2022/11/22 06:01:23;;;;;;;2.13;0.50;;;23.70;42.80;;;;;;5005310;28;20158;-65
2022/11/22 06:03:50;;;;;;;5.25;0.95;;;24.00;42.20;;;;;;5004860;28;20026;-67
2022/11/22 06:06:18;;;;;;;1.83;0.50;;;24.30;41.70;;;;;;5006711;28;20030;-66
2022/11/22 06:08:46;;;;;;;2.15;0.60;;;24.10;41.30;;;;;;5009229;28;20389;-67
2022/11/22 06:11:25;;;;;;;4.53;0.65;;;23.80;42.00;;;;;;5009090;28;20494;-65
2022/11/22 06:13:58;;;;;;;2.03;0.65;;;23.60;42.00;;;;;;5009147;28;20030;-65
2022/11/22 06:16:26;;;;;;;5.25;0.70;;;23.90;42.70;;;;;;5008638;28;20034;-66
2022/11/22 06:18:54;;;;;;;10.52;0.50;;;23.70;42.00;;;;;;5005204;28;20428;-66
2022/11/22 06:21:24;;;;;;;2.30;0.50;;;23.40;41.80;;;;;;5009047;28;20030;-67
2022/11/22 06:23:54;;;;;;;2.17;0.50;;;23.00;43.60;;;;;;5008939;28;20029;-66
2022/11/22 06:26:24;;;;;;;2.63;0.65;;;23.00;43.60;;;;;;5007527;28;20659;-64
2022/11/22 06:28:53;;;;;;;1.92;0.47;;;23.30;43.60;;;;;;5002062;28;20149;-66
2022/11/22 06:31:22;;;;;;;3.50;0.60;;;23.80;42.20;;;;;;5012303;28;20032;-67
2022/11/22 06:33:52;;;;;;;5.50;0.68;;;23.90;41.40;;;;;;5002323;28;20503;-67
2022/11/22 06:36:22;;;;;;;2.80;0.60;;;23.70;42.40;;;;;;5008895;28;20030;-66
2022/11/22 06:38:50;;;;;;;0.90;0.70;;;23.30;42.40;;;;;;5005616;28;20026;-65
2022/11/22 06:41:20;;;;;;;4.80;0.60;;;22.90;43.20;;;;;;4997022;28;20523;-65
2022/11/22 06:43:49;;;;;;;2.55;0.60;;;22.80;44.40;;;;;;5004351;28;20112;-66
2022/11/22 06:46:19;;;;;;;4.30;0.68;;;22.70;44.20;;;;;;5004483;28;20029;-65
2022/11/22 06:48:47;;;;;;;2.28;0.52;;;22.80;44.40;;;;;;5006480;28;20033;-65
2022/11/22 06:51:23;;;;;;;2.25;0.52;;;22.90;43.70;;;;;;5007840;28;20111;-66
2022/11/22 06:53:53;;;;;;;3.13;0.60;;;23.10;43.90;;;;;;5006464;28;20034;-66
2022/11/22 06:56:32;;;;;;;3.28;0.55;;;23.40;43.20;;;;;;5005913;28;20022;-66
2022/11/22 06:59:03;;;;;;;2.63;0.63;;;23.20;43.10;;;;;;5009267;28;20025;-66
2022/11/22 07:01:31;;;;;;;1.65;0.40;;;22.90;43.40;;;;;;5010825;28;20391;-66
2022/11/22 07:03:59;;;;;;;4.25;0.68;;;22.50;44.00;;;;;;5011790;28;20018;-66
2022/11/22 07:06:29;;;;;;;2.25;0.60;;;22.10;44.50;;;;;;5004982;28;20072;-66
2022/11/22 07:08:56;;;;;;;2.67;0.52;;;21.80;45.10;;;;;;5011009;28;20037;-65
2022/11/22 07:11:26;;;;;;;4.53;0.77;;;21.80;45.50;;;;;;5012060;28;20025;-66
2022/11/22 07:13:56;;;;;;;7.22;0.63;;;21.80;46.30;;;;;;5011410;28;20033;-67
2022/11/22 07:16:23;;;;;;;3.95;0.63;;;22.10;45.50;;;;;;5005589;28;20014;-66
2022/11/22 07:18:50;;;;;;;2.63;0.95;;;22.20;45.80;;;;;;5007736;28;20287;-66
2022/11/22 07:21:20;;;;;;;1.55;0.63;;;22.30;45.40;;;;;;5009231;28;20055;-66
2022/11/22 07:23:51;;;;;;;1.08;0.40;;;22.40;45.50;;;;;;5009555;28;20115;-67
2022/11/22 07:26:20;;;;;;;3.47;0.70;;;22.40;44.50;;;;;;5007579;28;20057;-68
2022/11/22 07:28:48;;;;;;;3.33;0.80;;;22.40;44.50;;;;;;5006905;28;20047;-67
2022/11/22 07:31:17;;;;;;;2.53;0.55;;;22.20;45.20;;;;;;5006875;28;20026;-67
2022/11/22 07:33:45;;;;;;;1.85;0.40;;;21.90;45.90;;;;;;5006738;28;20583;-67
2022/11/22 07:36:14;;;;;;;3.90;0.80;;;21.70;46.20;;;;;;5006593;28;20026;-68
2022/11/22 07:38:41;;;;;;;3.72;1.40;;;21.40;46.30;;;;;;5002912;28;20146;-67
2022/11/22 07:41:09;;;;;;;5.28;1.30;;;21.10;47.20;;;;;;5004166;28;20479;-66
2022/11/22 07:43:37;;;;;;;3.78;0.82;;;20.90;47.20;;;;;;5006200;28;20030;-67
2022/11/22 07:46:07;;;;;;;4.75;1.13;;;20.70;47.40;;;;;;5004964;28;20045;-65
2022/11/22 07:48:35;;;;;;;2.22;0.55;;;20.50;47.70;;;;;;5006949;28;20026;-64
2022/11/22 07:51:06;;;;;;;2.17;0.60;;;20.30;48.20;;;;;;5006767;28;20085;-65
2022/11/22 07:53:35;;;;;;;1.90;0.38;;;20.20;48.40;;;;;;5004043;28;20032;-64
2022/11/22 07:56:06;;;;;;;1.55;0.47;;;20.00;49.00;;;;;;5001541;28;20034;-64
2022/11/22 07:58:36;;;;;;;2.17;0.57;;;19.90;49.90;;;;;;5003670;28;20022;-65
2022/11/22 08:01:15;;;;;;;2.42;0.50;;;19.70;50.00;;;;;;5004767;28;20036;-65
2022/11/22 08:03:43;;;;;;;1.13;0.32;;;19.60;50.00;;;;;;5011446;28;20025;-65
2022/11/22 08:06:12;;;;;;;1.38;0.47;;;19.60;50.20;;;;;;5023575;28;20029;-64
2022/11/22 08:08:39;;;;;;;1.92;0.43;;;19.40;50.50;;;;;;5010995;28;20121;-65
2022/11/22 08:11:07;;;;;;;2.58;1.13;;;19.40;50.50;;;;;;5003509;28;20395;-64
2022/11/22 08:13:35;;;;;;;1.40;0.45;;;19.30;50.30;;;;;;5006315;28;20017;-64
2022/11/22 08:16:09;;;;;;;3.15;0.57;;;19.10;50.90;;;;;;5004572;28;20080;-63
2022/11/22 08:18:37;;;;;;;0.98;0.50;;;19.00;51.00;;;;;;5004374;28;20025;-64
2022/11/22 08:21:09;;;;;;;1.38;0.50;;;18.90;51.20;;;;;;5006633;28;20113;-64
2022/11/22 08:23:37;;;;;;;1.90;0.55;;;18.80;51.70;;;;;;5005217;28;20550;-63
2022/11/22 08:26:05;;;;;;;1.67;0.63;;;18.70;52.10;;;;;;5006055;28;20026;-66
2022/11/22 08:28:33;;;;;;;2.30;0.70;;;18.50;52.00;;;;;;5007569;28;20085;-64
2022/11/22 08:31:02;;;;;;;1.17;0.40;;;18.40;52.70;;;;;;5007901;28;20064;-63
2022/11/22 08:33:29;;;;;;;1.52;0.50;;;18.30;53.20;;;;;;5005370;28;20045;-62
2022/11/22 08:35:57;;;;;;;0.70;0.32;;;18.20;53.30;;;;;;5005010;28;20033;-63
2022/11/22 08:38:24;;;;;;;2.08;0.50;;;18.10;53.40;;;;;;5003566;28;20852;-63
2022/11/22 08:40:51;;;;;;;1.80;0.52;;;18.10;53.70;;;;;;5005969;28;20048;-62
2022/11/22 08:43:19;;;;;;;2.03;0.70;;;17.90;53.70;;;;;;5005146;28;20021;-64
2022/11/22 08:45:57;;;;;;;9.23;2.05;;;17.90;54.10;;;;;;5004555;28;20054;-63
2022/11/22 08:48:25;;;;;;;1.42;0.50;;;17.80;54.20;;;;;;5006956;28;20033;-64
2022/11/22 08:51:00;;;;;;;1.25;0.40;;;17.70;54.50;;;;;;5005708;28;20049;-65
2022/11/22 08:53:28;;;;;;;1.65;0.40;;;17.60;54.80;;;;;;5005362;28;20079;-64
2022/11/22 08:55:58;;;;;;;1.98;0.70;;;17.50;55.00;;;;;;5004087;28;20099;-63
2022/11/22 08:58:25;;;;;;;1.77;0.60;;;17.40;55.70;;;;;;5003607;28;20376;-65
2022/11/22 09:00:53;;;;;;;2.33;0.50;;;17.20;55.80;;;;;;5004983;28;20483;-65
2022/11/22 09:03:20;;;;;;;3.00;0.60;;;17.20;56.00;;;;;;5005432;28;20076;-64
2022/11/22 09:05:47;;;;;;;1.80;0.47;;;17.20;55.90;;;;;;5004952;28;20025;-67
2022/11/22 09:08:14;;;;;;;4.60;0.93;;;17.10;56.40;;;;;;5002873;28;20080;-63
2022/11/22 09:10:42;;;;;;;2.72;0.60;;;17.10;56.20;;;;;;5005055;28;20034;-62
2022/11/22 09:13:09;;;;;;;2.47;0.90;;;17.00;56.50;;;;;;5003529;28;20026;-62
2022/11/22 09:15:36;;;;;;;2.35;0.40;;;17.00;56.00;;;;;;5004997;28;20310;-64
2022/11/22 09:18:04;;;;;;;2.55;0.80;;;17.00;56.30;;;;;;5004771;28;20026;-63
2022/11/22 09:20:31;;;;;;;2.05;0.70;;;16.90;56.60;;;;;;5002694;28;20030;-64
2022/11/22 09:23:00;;;;;;;1.17;0.70;;;16.80;56.70;;;;;;5004492;28;20117;-62
2022/11/22 09:25:27;;;;;;;2.85;0.60;;;16.80;56.80;;;;;;5004836;28;20124;-62
2022/11/22 09:27:54;;;;;;;2.17;0.60;;;16.80;57.30;;;;;;5004585;28;20511;-64
2022/11/22 09:30:21;;;;;;;2.28;0.50;;;16.70;57.30;;;;;;5004466;28;20422;-61
2022/11/22 09:32:49;;;;;;;5.35;0.80;;;16.60;57.50;;;;;;5007376;28;20054;-62
2022/11/22 09:35:18;;;;;;;2.40;0.52;;;16.60;58.10;;;;;;5006376;28;20030;-61
2022/11/22 09:37:46;;;;;;;1.58;0.75;;;16.50;57.70;;;;;;5006557;28;20044;-61
2022/11/22 09:40:15;;;;;;;1.70;0.40;;;16.50;57.70;;;;;;5004519;28;20044;-62
2022/11/22 09:43:07;;;;;;;1.83;0.52;;;16.50;57.70;;;;;;5005506;28;20018;-61
2022/11/22 09:45:54;;;;;;;3.58;0.57;;;16.40;57.60;;;;;;4999980;28;20030;-62
2022/11/22 09:48:45;;;;;;;2.83;0.52;;;16.40;58.20;;;;;;5004366;28;20554;-62
2022/11/22 09:51:43;;;;;;;5.68;0.80;;;16.30;58.40;;;;;;4995939;28;20070;-60
2022/11/22 09:54:19;;;;;;;1.15;0.40;;;16.30;58.60;;;;;;4999931;28;20044;-63
2022/11/22 09:56:50;;;;;;;2.50;0.65;;;16.20;58.50;;;;;;5003849;28;20017;-62
2022/11/22 09:59:26;;;;;;;0.98;0.38;;;16.20;58.80;;;;;;5003510;28;20079;-61
2022/11/22 10:02:14;;;;;;;3.33;0.50;;;16.10;59.00;;;;;;5004385;28;20022;-63
2022/11/22 10:04:53;;;;;;;4.55;0.60;;;16.00;59.20;;;;;;5004647;28;20644;-62
2022/11/22 10:07:26;;;;;;;2.90;0.60;;;15.90;60.00;;;;;;5002391;28;20025;-62
2022/11/22 10:10:04;;;;;;;2.50;1.10;;;15.70;60.50;;;;;;5004437;28;20042;-64
2022/11/22 10:12:47;;;;;;;2.55;0.75;;;15.60;60.40;;;;;;5000191;28;20279;-62
2022/11/22 10:15:49;;;;;;;3.85;0.85;;;15.40;61.10;;;;;;5002292;28;20033;-62
2022/11/22 10:18:34;;;;;;;4.47;0.68;;;15.30;62.40;;;;;;4980000;28;20034;-62
2022/11/22 10:21:01;;;;;;;2.72;0.75;;;15.30;62.50;;;;;;5003080;28;20077;-63
2022/11/22 10:23:31;;;;;;;2.90;1.05;;;15.30;62.70;;;;;;5004492;28;20112;-63
2022/11/22 10:26:02;;;;;;;3.42;0.50;;;15.20;63.00;;;;;;5006937;28;20037;-63
2022/11/22 10:28:36;;;;;;;4.97;1.02;;;15.10;63.40;;;;;;5011034;28;20824;-62
2022/11/22 10:31:23;;;;;;;1.65;0.68;;;14.90;63.70;;;;;;5009633;28;20059;-63
2022/11/22 10:34:16;;;;;;;3.58;0.75;;;14.70;64.20;;;;;;5007279;28;20517;-62
2022/11/22 10:36:46;;;;;;;4.40;0.80;;;14.70;65.20;;;;;;4994148;28;20034;-62
2022/11/22 10:39:20;;;;;;;2.13;0.98;;;14.60;65.60;;;;;;5009951;28;20040;-62
2022/11/22 10:42:18;;;;;;;6.00;1.20;;;14.40;65.50;;;;;;4998221;28;20027;-63
2022/11/22 10:45:32;;;;;;;1.20;0.70;;;14.30;66.40;;;;;;5003217;28;20030;-62
2022/11/22 10:48:23;;;;;;;2.92;0.85;;;14.10;67.20;;;;;;4991236;28;20068;-62
2022/11/22 10:51:18;;;;;;;3.78;1.15;;;14.00;67.60;;;;;;5023226;28;20053;-63
2022/11/22 10:54:01;;;;;;;3.65;1.10;;;13.90;68.60;;;;;;5007995;28;20101;-62
2022/11/22 10:56:41;;;;;;;1.88;0.80;;;13.70;69.70;;;;;;5004592;28;20030;-65
2022/11/22 10:59:42;;;;;;;3.20;0.85;;;13.70;70.70;;;;;;5005563;28;20092;-61
2022/11/22 11:02:37;;;;;;;3.35;0.77;;;13.60;71.50;;;;;;5006782;28;20061;-63
2022/11/22 11:05:14;;;;;;;5.90;1.23;;;13.50;71.80;;;;;;5007980;28;20079;-62
2022/11/22 11:07:51;;;;;;;5.78;1.83;;;13.40;73.00;;;;;;5016518;28;20449;-62
2022/11/22 11:10:23;;;;;;;4.00;1.00;;;13.40;73.60;;;;;;5006716;28;20038;-63
2022/11/22 11:12:56;;;;;;;2.35;0.98;;;13.30;74.50;;;;;;5007886;28;20025;-65
2022/11/22 11:15:37;;;;;;;2.53;0.70;;;13.30;75.80;;;;;;5006856;28;20508;-63
2022/11/22 11:18:42;;;;;;;2.47;1.00;;;13.40;76.20;;;;;;5006365;28;20054;-64
2022/11/22 11:21:15;;;;;;;;;;;13.40;75.80;;;;;;5002561;28;20533;-63
2022/11/22 11:23:42;;;;;;;2.22;0.70;;;13.50;75.50;;;;;;5006071;28;19913;-63
2022/11/22 11:26:21;;;;;;;4.13;0.70;;;13.50;74.90;;;;;;5002665;28;20033;-64
2022/11/22 11:29:13;;;;;;;3.65;0.80;;;13.60;74.70;;;;;;5007188;28;20762;-64
2022/11/22 11:31:44;;;;;;;2.33;0.60;;;13.60;74.80;;;;;;5007037;28;20038;-63
2022/11/22 11:34:28;;;;;;;3.00;0.60;;;13.60;74.60;;;;;;5007174;28;20046;-62
2022/11/22 11:37:00;;;;;;;3.40;0.70;;;13.60;74.30;;;;;;5005112;28;20446;-63
2022/11/22 11:39:33;;;;;;;4.00;0.57;;;13.60;74.60;;;;;;5006386;28;20030;-62
2022/11/22 11:42:17;;;;;;;2.17;0.50;;;13.50;74.90;;;;;;5006769;28;20026;-64
2022/11/22 11:44:44;;;;;;;4.30;0.70;;;13.50;75.90;;;;;;5008099;28;20447;-64
2022/11/22 11:47:34;;;;;;;3.85;1.10;;;13.50;75.80;;;;;;5006831;28;20092;-62
2022/11/22 11:50:01;;;;;;;3.47;0.57;;;13.50;75.20;;;;;;5003633;28;20224;-64
2022/11/22 11:52:30;;;;;;;4.55;1.25;;;13.50;75.30;;;;;;5008352;28;20513;-64
2022/11/22 11:55:01;;;;;;;1.55;0.30;;;13.50;75.40;;;;;;5002860;28;20038;-64
2022/11/22 11:57:33;;;;;;;5.38;0.75;;;13.50;76.20;;;;;;5006938;28;20032;-63
2022/11/22 12:00:02;;;;;;;3.95;0.85;;;13.40;75.80;;;;;;5002392;28;20113;-63
2022/11/22 12:02:29;;;;;;;4.95;0.55;;;13.40;76.00;;;;;;5005550;28;20529;-62
2022/11/22 12:05:22;;;;;;;3.90;0.70;;;13.30;76.70;;;;;;5007637;28;20026;-61
2022/11/22 12:07:50;;;;;;;5.22;0.60;;;13.40;77.10;;;;;;5004221;28;20045;-63
2022/11/22 12:10:34;;;;;;;3.88;0.80;;;13.40;76.90;;;;;;5003945;28;20101;-64
2022/11/22 12:13:29;;;;;;;3.17;0.73;;;13.30;77.40;;;;;;5003460;28;20022;-63
2022/11/22 12:16:24;;;;;;;2.60;0.95;;;13.30;77.20;;;;;;5006912;28;20105;-63
2022/11/22 12:18:54;;;;;;;1.88;0.50;;;13.20;77.30;;;;;;5006789;28;20045;-62
2022/11/22 12:21:27;;;;;;;1.67;0.60;;;13.20;77.30;;;;;;5004247;28;20061;-62
2022/11/22 12:24:19;;;;;;;1.40;0.50;;;13.20;78.30;;;;;;5007829;28;20360;-63
2022/11/22 12:26:46;;;;;;;3.85;0.77;;;13.20;77.80;;;;;;5007721;28;20041;-62
2022/11/22 12:29:15;;;;;;;4.45;1.02;;;13.10;78.00;;;;;;5006350;28;20411;-61
2022/11/22 12:31:52;;;;;;;2.00;0.63;;;12.90;78.60;;;;;;5008251;28;20034;-61
2022/11/22 12:34:44;;;;;;;2.40;0.60;;;12.90;79.70;;;;;;5007433;28;20469;-63
2022/11/22 12:37:19;;;;;;;3.00;0.55;;;12.90;80.10;;;;;;5007694;28;20026;-63
2022/11/22 12:39:54;;;;;;;2.05;0.52;;;12.80;81.40;;;;;;5009286;28;20029;-63
2022/11/22 12:42:40;;;;;;;3.25;0.65;;;12.80;81.70;;;;;;5009739;28;20034;-64
2022/11/22 12:45:27;;;;;;;4.28;0.90;;;12.70;82.20;;;;;;5009307;28;20076;-63
2022/11/22 12:47:59;;;;;;;2.55;0.57;;;12.60;81.50;;;;;;5004550;28;20105;-62
2022/11/22 12:50:36;;;;;;;2.10;0.65;;;12.50;82.40;;;;;;5009124;28;20026;-62
2022/11/22 12:53:07;;;;;;;3.63;0.70;;;12.60;83.40;;;;;;5007956;28;20108;-63
2022/11/22 12:56:06;;;;;;;2.45;0.47;;;12.50;83.30;;;;;;5008178;28;20026;-63
2022/11/22 12:58:42;;;;;;;1.90;0.80;;;12.40;83.10;;;;;;5004079;28;20033;-63
2022/11/22 13:01:22;;;;;;;2.88;0.82;;;12.20;83.70;;;;;;5007659;28;20022;-61
2022/11/22 13:04:09;;;;;;;6.03;1.08;;;12.00;84.20;;;;;;5009317;28;20037;-63
2022/11/22 13:07:23;;;;;;;0.93;0.75;;;11.90;84.90;;;;;;4999097;28;20061;-62
2022/11/22 13:10:03;;;;;;;4.32;0.50;;;11.80;86.60;;;;;;5007376;28;20075;-62
2022/11/22 13:12:38;;;;;;;3.80;1.00;;;11.70;87.40;;;;;;4990306;28;20022;-62
2022/11/22 13:15:05;;;;;;;;;;;11.60;87.00;;;;;;5006000;28;20034;-62
2022/11/22 13:17:37;;;;;;;1.27;0.43;;;11.50;87.50;;;;;;5004111;28;19964;-62
2022/11/22 13:20:17;;;;;;;7.35;0.60;;;11.40;88.20;;;;;;5009583;28;20041;-63
2022/11/22 13:23:14;;;;;;;4.10;0.82;;;11.50;91.30;;;;;;5002017;28;20036;-62